sensor_id;sensor_type;location;lat;lon;timestamp;pressure;altitude;pressure_sealevel;temperature;humidity
65997;BME280;52765;52.258;21.052;2022-10-31T00:02:01;101013.34;;;11.58;100.00
65997;BME280;52765;52.258;21.052;2022-10-31T00:04:27;101006.56;;;11.54;100.00
65997;BME280;52765;52.258;21.052;2022-10-31T00:06:52;101001.31;;;11.53;100.00
65997;BME280;52765;52.258;21.052;2022-10-31T00:09:18;101001.47;;;11.51;100.00
65997;BME280;52765;52.258;21.052;2022-10-31T00:11:44;101007.16;;;11.48;100.00
65997;BME280;52765;52.258;21.052;2022-10-31T00:14:10;100997.34;;;11.47;100.00
65997;BME280;52765;52.258;21.052;2022-10-31T00:16:35;101000.91;;;11.47;100.00
65997;BME280;52765;52.258;21.052;2022-10-31T00:19:03;101005.84;;;11.52;100.00
65997;BME280;52765;52.258;21.052;2022-10-31T00:21:31;101003.16;;;11.52;100.00
65997;BME280;52765;52.258;21.052;2022-10-31T00:23:58;101011.09;;;11.54;100.00
65997;BME280;52765;52.258;21.052;2022-10-31T00:26:24;100990.00;;;11.39;100.00
65997;BME280;52765;52.258;21.052;2022-10-31T00:28:50;100998.34;;;11.46;100.00
65997;BME280;52765;52.258;21.052;2022-10-31T00:31:16;101003.34;;;11.41;100.00
65997;BME280;52765;52.258;21.052;2022-10-31T00:33:42;100997.22;;;11.39;100.00
65997;BME280;52765;52.258;21.052;2022-10-31T00:36:14;101014.53;;;11.46;100.00
65997;BME280;52765;52.258;21.052;2022-10-31T00:38:40;101013.25;;;11.40;100.00
65997;BME280;52765;52.258;21.052;2022-10-31T00:41:07;101007.88;;;11.40;100.00
65997;BME280;52765;52.258;21.052;2022-10-31T00:43:33;101016.97;;;11.39;100.00
65997;BME280;52765;52.258;21.052;2022-10-31T00:46:04;101013.13;;;11.42;100.00
65997;BME280;52765;52.258;21.052;2022-10-31T00:48:38;101001.94;;;11.27;100.00
65997;BME280;52765;52.258;21.052;2022-10-31T00:51:04;101000.13;;;11.27;100.00
65997;BME280;52765;52.258;21.052;2022-10-31T00:53:30;100989.91;;;11.21;100.00
65997;BME280;52765;52.258;21.052;2022-10-31T00:55:55;101018.53;;;11.32;100.00
65997;BME280;52765;52.258;21.052;2022-10-31T00:58:21;101004.38;;;11.20;100.00
65997;BME280;52765;52.258;21.052;2022-10-31T01:00:48;101009.19;;;11.26;100.00
65997;BME280;52765;52.258;21.052;2022-10-31T01:03:24;100998.28;;;11.08;100.00
65997;BME280;52765;52.258;21.052;2022-10-31T01:05:57;101027.09;;;11.27;100.00
65997;BME280;52765;52.258;21.052;2022-10-31T01:08:22;101016.31;;;11.18;100.00
65997;BME280;52765;52.258;21.052;2022-10-31T01:11:00;101018.72;;;11.21;100.00
65997;BME280;52765;52.258;21.052;2022-10-31T01:13:26;101016.47;;;11.06;100.00
65997;BME280;52765;52.258;21.052;2022-10-31T01:15:56;101018.88;;;11.09;100.00
65997;BME280;52765;52.258;21.052;2022-10-31T01:18:22;101006.66;;;10.96;100.00
65997;BME280;52765;52.258;21.052;2022-10-31T01:21:10;101006.38;;;10.99;100.00
65997;BME280;52765;52.258;21.052;2022-10-31T01:23:36;101008.66;;;10.93;100.00
65997;BME280;52765;52.258;21.052;2022-10-31T01:28:33;101006.84;;;10.84;100.00
65997;BME280;52765;52.258;21.052;2022-10-31T01:31:04;101011.22;;;10.85;100.00
65997;BME280;52765;52.258;21.052;2022-10-31T01:33:30;101000.31;;;10.77;100.00
65997;BME280;52765;52.258;21.052;2022-10-31T01:35:58;101008.09;;;10.80;100.00
65997;BME280;52765;52.258;21.052;2022-10-31T01:38:24;101026.56;;;10.85;100.00
65997;BME280;52765;52.258;21.052;2022-10-31T01:40:50;101006.69;;;10.76;100.00
65997;BME280;52765;52.258;21.052;2022-10-31T01:43:16;100995.91;;;10.66;100.00
65997;BME280;52765;52.258;21.052;2022-10-31T01:45:46;100996.47;;;10.60;100.00
65997;BME280;52765;52.258;21.052;2022-10-31T01:48:16;101015.63;;;10.67;100.00
65997;BME280;52765;52.258;21.052;2022-10-31T01:50:46;101022.03;;;10.66;100.00
65997;BME280;52765;52.258;21.052;2022-10-31T01:53:15;101002.69;;;10.61;100.00
65997;BME280;52765;52.258;21.052;2022-10-31T01:55:43;101031.22;;;10.73;100.00
65997;BME280;52765;52.258;21.052;2022-10-31T01:58:13;100991.34;;;10.47;100.00
65997;BME280;52765;52.258;21.052;2022-10-31T02:00:43;101019.19;;;10.58;100.00
65997;BME280;52765;52.258;21.052;2022-10-31T02:03:10;101005.84;;;10.46;100.00
65997;BME280;52765;52.258;21.052;2022-10-31T02:05:37;101001.84;;;10.50;100.00
65997;BME280;52765;52.258;21.052;2022-10-31T02:08:25;101026.69;;;10.64;100.00
65997;BME280;52765;52.258;21.052;2022-10-31T02:10:49;101009.53;;;10.55;100.00
65997;BME280;52765;52.258;21.052;2022-10-31T02:13:15;101003.56;;;10.51;100.00
65997;BME280;52765;52.258;21.052;2022-10-31T02:15:43;101012.50;;;10.62;100.00
65997;BME280;52765;52.258;21.052;2022-10-31T02:18:09;101025.97;;;10.62;100.00
65997;BME280;52765;52.258;21.052;2022-10-31T02:21:05;101025.41;;;10.68;100.00
65997;BME280;52765;52.258;21.052;2022-10-31T02:23:51;101026.69;;;10.64;100.00
65997;BME280;52765;52.258;21.052;2022-10-31T02:32:20;101025.53;;;10.57;100.00
65997;BME280;52765;52.258;21.052;2022-10-31T02:37:51;101011.78;;;10.40;100.00
65997;BME280;52765;52.258;21.052;2022-10-31T02:42:51;101030.66;;;10.50;100.00
65997;BME280;52765;52.258;21.052;2022-10-31T02:45:26;101034.75;;;10.44;100.00
65997;BME280;52765;52.258;21.052;2022-10-31T02:47:55;101022.63;;;10.29;100.00
65997;BME280;52765;52.258;21.052;2022-10-31T02:50:31;101027.38;;;10.36;100.00
65997;BME280;52765;52.258;21.052;2022-10-31T02:52:58;101034.88;;;10.33;100.00
65997;BME280;52765;52.258;21.052;2022-10-31T02:58:16;101023.34;;;10.21;100.00
65997;BME280;52765;52.258;21.052;2022-10-31T03:03:33;101044.75;;;10.23;100.00
65997;BME280;52765;52.258;21.052;2022-10-31T03:11:50;101032.50;;;10.09;100.00
65997;BME280;52765;52.258;21.052;2022-10-31T03:14:23;101036.34;;;10.06;100.00
65997;BME280;52765;52.258;21.052;2022-10-31T03:16:53;101042.97;;;10.02;100.00
65997;BME280;52765;52.258;21.052;2022-10-31T03:19:28;101057.03;;;10.15;100.00
65997;BME280;52765;52.258;21.052;2022-10-31T03:22:04;101043.41;;;10.07;100.00
65997;BME280;52765;52.258;21.052;2022-10-31T03:24:38;101063.16;;;10.17;100.00
65997;BME280;52765;52.258;21.052;2022-10-31T03:27:07;101061.44;;;10.16;100.00
65997;BME280;52765;52.258;21.052;2022-10-31T03:29:36;101055.91;;;10.18;100.00
65997;BME280;52765;52.258;21.052;2022-10-31T03:32:08;101042.56;;;10.07;100.00
65997;BME280;52765;52.258;21.052;2022-10-31T03:34:37;101064.13;;;10.16;100.00
65997;BME280;52765;52.258;21.052;2022-10-31T03:37:06;101073.63;;;10.21;100.00
65997;BME280;52765;52.258;21.052;2022-10-31T03:39:33;101062.53;;;10.14;100.00
65997;BME280;52765;52.258;21.052;2022-10-31T03:42:09;101075.47;;;10.20;100.00
65997;BME280;52765;52.258;21.052;2022-10-31T03:44:38;101047.09;;;10.06;100.00
65997;BME280;52765;52.258;21.052;2022-10-31T03:47:06;101071.63;;;10.13;100.00
65997;BME280;52765;52.258;21.052;2022-10-31T03:49:32;101068.31;;;9.99;100.00
65997;BME280;52765;52.258;21.052;2022-10-31T03:52:11;101080.25;;;10.07;100.00
65997;BME280;52765;52.258;21.052;2022-10-31T03:54:45;101068.31;;;9.99;100.00
65997;BME280;52765;52.258;21.052;2022-10-31T04:00:05;101070.13;;;9.89;100.00
65997;BME280;52765;52.258;21.052;2022-10-31T04:02:33;101070.25;;;9.88;100.00
65997;BME280;52765;52.258;21.052;2022-10-31T04:05:00;101058.56;;;9.77;100.00
65997;BME280;52765;52.258;21.052;2022-10-31T04:07:33;101073.66;;;9.90;100.00
65997;BME280;52765;52.258;21.052;2022-10-31T04:10:02;101063.81;;;9.79;100.00
65997;BME280;52765;52.258;21.052;2022-10-31T04:12:30;101072.50;;;9.82;100.00
65997;BME280;52765;52.258;21.052;2022-10-31T04:14:59;101054.72;;;9.70;100.00
65997;BME280;52765;52.258;21.052;2022-10-31T04:17:30;101079.88;;;9.90;100.00
65997;BME280;52765;52.258;21.052;2022-10-31T04:19:59;101058.88;;;9.74;100.00
65997;BME280;52765;52.258;21.052;2022-10-31T04:22:25;101060.03;;;9.81;100.00
65997;BME280;52765;52.258;21.052;2022-10-31T04:24:51;101054.47;;;9.73;100.00
65997;BME280;52765;52.258;21.052;2022-10-31T04:27:16;101075.47;;;9.79;100.00
65997;BME280;52765;52.258;21.052;2022-10-31T04:29:42;101073.16;;;9.75;100.00
65997;BME280;52765;52.258;21.052;2022-10-31T04:32:08;101057.22;;;9.62;100.00
65997;BME280;52765;52.258;21.052;2022-10-31T04:34:34;101074.88;;;9.76;100.00
65997;BME280;52765;52.258;21.052;2022-10-31T04:36:59;101086.09;;;9.81;100.00
65997;BME280;52765;52.258;21.052;2022-10-31T04:39:25;101070.28;;;9.67;100.00
65997;BME280;52765;52.258;21.052;2022-10-31T04:41:50;101069.84;;;9.61;100.00
65997;BME280;52765;52.258;21.052;2022-10-31T04:44:16;101087.84;;;9.71;100.00
65997;BME280;52765;52.258;21.052;2022-10-31T04:46:41;101089.44;;;9.73;100.00
65997;BME280;52765;52.258;21.052;2022-10-31T04:49:09;101084.19;;;9.72;100.00
65997;BME280;52765;52.258;21.052;2022-10-31T04:51:35;101090.53;;;9.71;100.00
65997;BME280;52765;52.258;21.052;2022-10-31T04:54:00;101095.28;;;9.78;100.00
65997;BME280;52765;52.258;21.052;2022-10-31T04:56:26;101079.19;;;9.67;100.00
65997;BME280;52765;52.258;21.052;2022-10-31T04:58:56;101053.50;;;9.53;100.00
65997;BME280;52765;52.258;21.052;2022-10-31T05:01:25;101072.53;;;9.61;100.00
65997;BME280;52765;52.258;21.052;2022-10-31T05:03:50;101062.97;;;9.48;100.00
65997;BME280;52765;52.258;21.052;2022-10-31T05:06:16;101098.59;;;9.61;100.00
65997;BME280;52765;52.258;21.052;2022-10-31T05:08:42;101100.53;;;9.59;100.00
65997;BME280;52765;52.258;21.052;2022-10-31T05:11:08;101079.38;;;9.44;100.00
65997;BME280;52765;52.258;21.052;2022-10-31T05:13:36;101097.19;;;9.45;100.00
65997;BME280;52765;52.258;21.052;2022-10-31T05:16:02;101077.06;;;9.40;100.00
65997;BME280;52765;52.258;21.052;2022-10-31T05:18:28;101104.28;;;9.47;100.00
65997;BME280;52765;52.258;21.052;2022-10-31T05:20:53;101102.81;;;9.42;100.00
65997;BME280;52765;52.258;21.052;2022-10-31T05:23:19;101101.00;;;9.43;100.00
65997;BME280;52765;52.258;21.052;2022-10-31T05:25:44;101094.31;;;9.37;100.00
65997;BME280;52765;52.258;21.052;2022-10-31T05:28:16;101098.44;;;9.41;100.00
65997;BME280;52765;52.258;21.052;2022-10-31T05:30:42;101117.28;;;9.41;100.00
65997;BME280;52765;52.258;21.052;2022-10-31T05:33:10;101107.88;;;9.36;100.00
65997;BME280;52765;52.258;21.052;2022-10-31T05:35:36;101102.84;;;9.21;100.00
65997;BME280;52765;52.258;21.052;2022-10-31T05:38:04;101080.53;;;9.10;100.00
65997;BME280;52765;52.258;21.052;2022-10-31T05:40:29;101102.97;;;9.20;100.00
65997;BME280;52765;52.258;21.052;2022-10-31T05:42:56;101114.44;;;9.22;100.00
65997;BME280;52765;52.258;21.052;2022-10-31T05:45:23;101121.19;;;9.16;100.00
65997;BME280;52765;52.258;21.052;2022-10-31T05:48:01;101122.75;;;9.19;100.00
65997;BME280;52765;52.258;21.052;2022-10-31T05:50:30;101125.81;;;9.14;100.00
65997;BME280;52765;52.258;21.052;2022-10-31T05:53:02;101095.09;;;8.96;100.00
65997;BME280;52765;52.258;21.052;2022-10-31T05:55:28;101133.88;;;9.14;100.00
65997;BME280;52765;52.258;21.052;2022-10-31T05:57:54;101123.00;;;9.16;100.00
65997;BME280;52765;52.258;21.052;2022-10-31T06:00:21;101120.44;;;9.14;100.00
65997;BME280;52765;52.258;21.052;2022-10-31T06:02:46;101102.78;;;9.00;100.00
65997;BME280;52765;52.258;21.052;2022-10-31T06:05:13;101106.19;;;9.02;100.00
65997;BME280;52765;52.258;21.052;2022-10-31T06:07:38;101095.78;;;8.88;100.00
65997;BME280;52765;52.258;21.052;2022-10-31T06:10:06;101124.50;;;9.08;100.00
65997;BME280;52765;52.258;21.052;2022-10-31T06:12:33;101126.22;;;9.10;100.00
65997;BME280;52765;52.258;21.052;2022-10-31T06:15:04;101108.28;;;8.99;100.00
65997;BME280;52765;52.258;21.052;2022-10-31T06:17:34;101129.00;;;9.19;100.00
65997;BME280;52765;52.258;21.052;2022-10-31T06:19:59;101121.69;;;9.10;100.00
65997;BME280;52765;52.258;21.052;2022-10-31T06:22:25;101133.50;;;9.19;100.00
65997;BME280;52765;52.258;21.052;2022-10-31T06:24:50;101125.69;;;9.16;100.00
65997;BME280;52765;52.258;21.052;2022-10-31T06:27:16;101140.59;;;9.20;100.00
65997;BME280;52765;52.258;21.052;2022-10-31T06:29:41;101128.13;;;9.19;100.00
65997;BME280;52765;52.258;21.052;2022-10-31T06:32:10;101127.75;;;9.23;100.00
65997;BME280;52765;52.258;21.052;2022-10-31T06:34:35;101130.06;;;9.28;100.00
65997;BME280;52765;52.258;21.052;2022-10-31T06:37:01;101110.56;;;9.15;100.00
65997;BME280;52765;52.258;21.052;2022-10-31T06:39:26;101126.53;;;9.28;100.00
65997;BME280;52765;52.258;21.052;2022-10-31T06:41:52;101141.59;;;9.40;100.00
65997;BME280;52765;52.258;21.052;2022-10-31T06:44:17;101140.47;;;9.42;100.00
65997;BME280;52765;52.258;21.052;2022-10-31T06:46:43;101142.78;;;9.47;100.00
65997;BME280;52765;52.258;21.052;2022-10-31T06:49:08;101147.91;;;9.50;100.00
65997;BME280;52765;52.258;21.052;2022-10-31T06:51:34;101141.13;;;9.56;100.00
65997;BME280;52765;52.258;21.052;2022-10-31T06:54:05;101143.31;;;9.62;100.00
65997;BME280;52765;52.258;21.052;2022-10-31T06:56:30;101140.09;;;9.68;100.00
65997;BME280;52765;52.258;21.052;2022-10-31T06:58:56;101137.41;;;9.68;100.00
65997;BME280;52765;52.258;21.052;2022-10-31T07:01:21;101145.56;;;9.78;100.00
65997;BME280;52765;52.258;21.052;2022-10-31T07:03:47;101124.94;;;9.67;100.00
65997;BME280;52765;52.258;21.052;2022-10-31T07:06:12;101155.25;;;9.90;100.00
65997;BME280;52765;52.258;21.052;2022-10-31T07:08:38;101138.50;;;9.87;100.00
65997;BME280;52765;52.258;21.052;2022-10-31T07:11:03;101127.69;;;9.77;100.00
65997;BME280;52765;52.258;21.052;2022-10-31T07:13:29;101139.09;;;9.90;100.00
65997;BME280;52765;52.258;21.052;2022-10-31T07:15:59;101121.22;;;9.79;100.00
65997;BME280;52765;52.258;21.052;2022-10-31T07:18:26;101130.31;;;9.88;100.00
65997;BME280;52765;52.258;21.052;2022-10-31T07:20:52;101147.94;;;10.02;100.00
65997;BME280;52765;52.258;21.052;2022-10-31T07:23:17;101129.03;;;9.92;100.00
65997;BME280;52765;52.258;21.052;2022-10-31T07:25:43;101133.91;;;9.98;100.00
65997;BME280;52765;52.258;21.052;2022-10-31T07:28:09;101146.56;;;10.08;100.00
65997;BME280;52765;52.258;21.052;2022-10-31T07:30:35;101146.69;;;10.06;100.00
65997;BME280;52765;52.258;21.052;2022-10-31T07:33:00;101154.22;;;10.12;100.00
65997;BME280;52765;52.258;21.052;2022-10-31T07:35:28;101156.19;;;10.10;100.00
65997;BME280;52765;52.258;21.052;2022-10-31T07:37:54;101163.09;;;10.24;100.00
65997;BME280;52765;52.258;21.052;2022-10-31T07:40:20;101168.78;;;10.31;100.00
65997;BME280;52765;52.258;21.052;2022-10-31T07:42:48;101150.19;;;10.28;100.00
65997;BME280;52765;52.258;21.052;2022-10-31T07:45:16;101139.28;;;10.29;100.00
65997;BME280;52765;52.258;21.052;2022-10-31T07:47:47;101155.38;;;10.41;100.00
65997;BME280;52765;52.258;21.052;2022-10-31T07:50:15;101161.81;;;10.49;100.00
65997;BME280;52765;52.258;21.052;2022-10-31T07:52:41;101160.22;;;10.47;100.00
65997;BME280;52765;52.258;21.052;2022-10-31T07:55:07;101153.59;;;10.51;100.00
65997;BME280;52765;52.258;21.052;2022-10-31T07:57:33;101138.25;;;10.51;100.00
65997;BME280;52765;52.258;21.052;2022-10-31T07:59:59;101155.03;;;10.65;100.00
65997;BME280;52765;52.258;21.052;2022-10-31T08:02:25;101155.06;;;10.74;100.00
65997;BME280;52765;52.258;21.052;2022-10-31T08:04:50;101161.31;;;10.85;100.00
65997;BME280;52765;52.258;21.052;2022-10-31T08:07:20;101168.41;;;10.96;100.00
65997;BME280;52765;52.258;21.052;2022-10-31T08:09:45;101151.09;;;10.88;100.00
65997;BME280;52765;52.258;21.052;2022-10-31T08:12:13;101154.25;;;11.03;100.00
65997;BME280;52765;52.258;21.052;2022-10-31T08:14:39;101180.25;;;11.14;100.00
65997;BME280;52765;52.258;21.052;2022-10-31T08:17:04;101152.13;;;11.17;100.00
65997;BME280;52765;52.258;21.052;2022-10-31T08:19:29;101147.72;;;11.16;100.00
65997;BME280;52765;52.258;21.052;2022-10-31T08:21:55;101151.72;;;11.21;100.00
65997;BME280;52765;52.258;21.052;2022-10-31T08:24:21;101172.28;;;11.32;100.00
65997;BME280;52765;52.258;21.052;2022-10-31T08:26:47;101143.06;;;11.18;100.00
65997;BME280;52765;52.258;21.052;2022-10-31T08:29:13;101136.38;;;11.22;100.00
65997;BME280;52765;52.258;21.052;2022-10-31T08:31:40;101164.06;;;11.43;100.00
65997;BME280;52765;52.258;21.052;2022-10-31T08:34:05;101176.84;;;11.61;100.00
65997;BME280;52765;52.258;21.052;2022-10-31T08:36:31;101183.34;;;11.68;100.00
65997;BME280;52765;52.258;21.052;2022-10-31T08:38:56;101182.66;;;11.76;100.00
65997;BME280;52765;52.258;21.052;2022-10-31T08:41:22;101179.06;;;11.85;100.00
65997;BME280;52765;52.258;21.052;2022-10-31T08:43:48;101166.47;;;11.76;100.00
65997;BME280;52765;52.258;21.052;2022-10-31T08:46:14;101190.16;;;11.92;100.00
65997;BME280;52765;52.258;21.052;2022-10-31T08:48:40;101195.84;;;11.98;100.00
65997;BME280;52765;52.258;21.052;2022-10-31T08:51:05;101194.41;;;12.04;100.00
65997;BME280;52765;52.258;21.052;2022-10-31T08:53:31;101171.81;;;11.95;100.00
65997;BME280;52765;52.258;21.052;2022-10-31T08:56:00;101202.88;;;12.19;100.00
65997;BME280;52765;52.258;21.052;2022-10-31T08:58:25;101171.50;;;12.08;100.00
65997;BME280;52765;52.258;21.052;2022-10-31T09:00:52;101187.69;;;12.18;100.00
65997;BME280;52765;52.258;21.052;2022-10-31T09:03:21;101178.75;;;12.17;100.00
65997;BME280;52765;52.258;21.052;2022-10-31T09:05:46;101192.94;;;12.29;100.00
65997;BME280;52765;52.258;21.052;2022-10-31T09:08:13;101166.22;;;12.16;100.00
65997;BME280;52765;52.258;21.052;2022-10-31T09:10:39;101184.22;;;12.35;100.00
65997;BME280;52765;52.258;21.052;2022-10-31T09:13:08;101195.59;;;12.39;100.00
65997;BME280;52765;52.258;21.052;2022-10-31T09:15:36;101179.41;;;12.29;100.00
65997;BME280;52765;52.258;21.052;2022-10-31T09:18:02;101180.66;;;12.35;100.00
65997;BME280;52765;52.258;21.052;2022-10-31T09:20:28;101181.31;;;12.47;100.00
65997;BME280;52765;52.258;21.052;2022-10-31T09:22:59;101197.75;;;12.63;100.00
65997;BME280;52765;52.258;21.052;2022-10-31T09:25:25;101196.53;;;12.75;100.00
65997;BME280;52765;52.258;21.052;2022-10-31T09:27:51;101166.66;;;12.77;100.00
65997;BME280;52765;52.258;21.052;2022-10-31T09:30:21;101195.00;;;13.01;100.00
65997;BME280;52765;52.258;21.052;2022-10-31T09:32:47;101183.53;;;13.07;100.00
65997;BME280;52765;52.258;21.052;2022-10-31T09:35:12;101195.78;;;13.11;100.00
65997;BME280;52765;52.258;21.052;2022-10-31T09:37:39;101174.44;;;13.08;100.00
65997;BME280;52765;52.258;21.052;2022-10-31T09:40:05;101199.25;;;13.21;100.00
65997;BME280;52765;52.258;21.052;2022-10-31T09:50:52;101195.72;;;13.57;99.20
65997;BME280;52765;52.258;21.052;2022-10-31T09:56:08;101200.13;;;13.76;98.62
65997;BME280;52765;52.258;21.052;2022-10-31T09:58:41;101194.28;;;13.88;98.21
65997;BME280;52765;52.258;21.052;2022-10-31T10:01:23;101189.63;;;13.99;98.06
65997;BME280;52765;52.258;21.052;2022-10-31T10:06:51;101190.06;;;14.12;97.00
65997;BME280;52765;52.258;21.052;2022-10-31T10:09:20;101149.03;;;14.07;96.54
65997;BME280;52765;52.258;21.052;2022-10-31T10:12:28;101181.06;;;14.38;95.23
65997;BME280;52765;52.258;21.052;2022-10-31T10:15:18;101183.13;;;14.44;95.31
65997;BME280;52765;52.258;21.052;2022-10-31T10:18:26;101183.69;;;14.56;94.97
65997;BME280;52765;52.258;21.052;2022-10-31T10:21:09;101181.25;;;14.71;94.48
65997;BME280;52765;52.258;21.052;2022-10-31T10:26:45;101174.34;;;14.93;92.16
65997;BME280;52765;52.258;21.052;2022-10-31T10:29:36;101166.75;;;15.05;90.92
65997;BME280;52765;52.258;21.052;2022-10-31T10:32:19;101173.38;;;15.10;90.57
65997;BME280;52765;52.258;21.052;2022-10-31T10:34:49;101174.94;;;15.21;90.15
65997;BME280;52765;52.258;21.052;2022-10-31T10:37:28;101166.63;;;15.23;90.21
65997;BME280;52765;52.258;21.052;2022-10-31T10:40:11;101143.19;;;15.22;89.84
65997;BME280;52765;52.258;21.052;2022-10-31T10:42:59;101146.75;;;15.30;89.06
65997;BME280;52765;52.258;21.052;2022-10-31T10:51:43;101142.03;;;15.57;87.28
65997;BME280;52765;52.258;21.052;2022-10-31T10:56:57;101165.31;;;15.76;86.92
65997;BME280;52765;52.258;21.052;2022-10-31T10:59:28;101167.34;;;15.82;86.60
65997;BME280;52765;52.258;21.052;2022-10-31T11:01:55;101152.72;;;15.83;86.38
65997;BME280;52765;52.258;21.052;2022-10-31T11:04:33;101143.06;;;15.89;86.05
65997;BME280;52765;52.258;21.052;2022-10-31T11:07:07;101159.66;;;16.11;86.01
65997;BME280;52765;52.258;21.052;2022-10-31T11:09:34;101148.09;;;16.08;85.64
65997;BME280;52765;52.258;21.052;2022-10-31T11:12:16;101141.81;;;16.08;85.22
65997;BME280;52765;52.258;21.052;2022-10-31T11:14:55;101134.97;;;16.20;84.62
65997;BME280;52765;52.258;21.052;2022-10-31T11:22:37;101144.09;;;16.44;83.41
65997;BME280;52765;52.258;21.052;2022-10-31T11:27:44;101158.44;;;16.69;82.93
65997;BME280;52765;52.258;21.052;2022-10-31T11:30:13;101157.19;;;16.72;83.00
65997;BME280;52765;52.258;21.052;2022-10-31T11:32:48;101140.88;;;16.72;82.86
65997;BME280;52765;52.258;21.052;2022-10-31T11:35:17;101142.72;;;16.79;82.67
65997;BME280;52765;52.258;21.052;2022-10-31T11:37:45;101155.31;;;16.89;82.70
65997;BME280;52765;52.258;21.052;2022-10-31T11:40:22;101145.22;;;16.97;82.58
65997;BME280;52765;52.258;21.052;2022-10-31T11:42:50;101135.88;;;16.92;81.79
65997;BME280;52765;52.258;21.052;2022-10-31T11:47:50;101125.81;;;17.00;81.83
65997;BME280;52765;52.258;21.052;2022-10-31T11:50:23;101153.41;;;17.20;81.66
65997;BME280;52765;52.258;21.052;2022-10-31T11:52:53;101134.03;;;17.15;81.29
65997;BME280;52765;52.258;21.052;2022-10-31T11:55:34;101150.56;;;17.37;80.36
65997;BME280;52765;52.258;21.052;2022-10-31T11:58:04;101141.88;;;17.33;79.81
65997;BME280;52765;52.258;21.052;2022-10-31T12:00:36;101139.28;;;17.40;79.58
65997;BME280;52765;52.258;21.052;2022-10-31T12:03:37;101138.19;;;17.49;79.12
65997;BME280;52765;52.258;21.052;2022-10-31T12:08:43;101136.41;;;17.56;77.86
65997;BME280;52765;52.258;21.052;2022-10-31T12:12:02;101135.44;;;17.72;77.38
65997;BME280;52765;52.258;21.052;2022-10-31T12:17:22;101138.63;;;17.76;77.15
65997;BME280;52765;52.258;21.052;2022-10-31T12:20:18;101131.72;;;17.88;76.88
65997;BME280;52765;52.258;21.052;2022-10-31T12:43:46;101116.06;;;18.05;73.79
65997;BME280;52765;52.258;21.052;2022-10-31T12:49:37;101117.53;;;18.08;73.50
65997;BME280;52765;52.258;21.052;2022-10-31T12:57:50;101124.81;;;17.78;71.14
65997;BME280;52765;52.258;21.052;2022-10-31T13:00:19;101097.63;;;17.54;71.04
65997;BME280;52765;52.258;21.052;2022-10-31T13:03:36;101094.06;;;17.54;69.90
65997;BME280;52765;52.258;21.052;2022-10-31T13:06:28;101082.19;;;17.47;70.68
65997;BME280;52765;52.258;21.052;2022-10-31T13:09:02;101108.25;;;17.64;71.05
65997;BME280;52765;52.258;21.052;2022-10-31T13:11:58;101118.91;;;17.74;71.53
65997;BME280;52765;52.258;21.052;2022-10-31T13:14:39;101102.34;;;17.61;72.01
65997;BME280;52765;52.258;21.052;2022-10-31T13:17:16;101095.72;;;17.55;72.19
65997;BME280;52765;52.258;21.052;2022-10-31T13:19:45;101108.44;;;17.63;71.98
65997;BME280;52765;52.258;21.052;2022-10-31T13:22:25;101114.28;;;17.74;72.76
65997;BME280;52765;52.258;21.052;2022-10-31T13:27:47;101103.47;;;17.66;74.00
65997;BME280;52765;52.258;21.052;2022-10-31T13:30:18;101119.09;;;17.72;74.60
65997;BME280;52765;52.258;21.052;2022-10-31T13:32:54;101092.63;;;17.58;75.02
65997;BME280;52765;52.258;21.052;2022-10-31T13:35:33;101119.72;;;17.74;75.76
65997;BME280;52765;52.258;21.052;2022-10-31T13:39:06;101115.00;;;17.68;76.31
65997;BME280;52765;52.258;21.052;2022-10-31T13:41:06;101091.34;;;17.54;77.18
65997;BME280;52765;52.258;21.052;2022-10-31T13:46:37;101116.91;;;17.68;77.89
65997;BME280;52765;52.258;21.052;2022-10-31T13:54:43;101088.56;;;17.39;78.21
65997;BME280;52765;52.258;21.052;2022-10-31T13:57:31;101108.22;;;17.49;78.30
65997;BME280;52765;52.258;21.052;2022-10-31T14:00:03;101080.72;;;17.21;78.25
65997;BME280;52765;52.258;21.052;2022-10-31T14:02:53;101102.44;;;17.29;79.06
65997;BME280;52765;52.258;21.052;2022-10-31T14:07:45;101088.84;;;17.06;81.52
65997;BME280;52765;52.258;21.052;2022-10-31T14:10:29;101092.97;;;17.02;83.61
65997;BME280;52765;52.258;21.052;2022-10-31T14:13:05;101115.75;;;17.01;84.97
65997;BME280;52765;52.258;21.052;2022-10-31T14:15:42;101098.66;;;16.84;86.09
65997;BME280;52765;52.258;21.052;2022-10-31T14:18:24;101112.31;;;16.76;87.29
65997;BME280;52765;52.258;21.052;2022-10-31T14:20:50;101098.78;;;16.59;88.18
65997;BME280;52765;52.258;21.052;2022-10-31T14:28:59;101115.72;;;16.38;90.29
65997;BME280;52765;52.258;21.052;2022-10-31T14:31:29;101107.44;;;16.23;91.04
65997;BME280;52765;52.258;21.052;2022-10-31T14:34:03;101101.56;;;16.03;91.83
65997;BME280;52765;52.258;21.052;2022-10-31T14:47:22;101114.34;;;15.62;95.61
65997;BME280;52765;52.258;21.052;2022-10-31T14:52:25;101097.22;;;15.20;97.75
65997;BME280;52765;52.258;21.052;2022-10-31T14:54:53;101085.03;;;15.08;98.81
65997;BME280;52765;52.258;21.052;2022-10-31T14:57:29;101115.88;;;15.15;99.31
65997;BME280;52765;52.258;21.052;2022-10-31T15:00:04;101114.84;;;14.99;100.00
65997;BME280;52765;52.258;21.052;2022-10-31T15:02:35;101117.53;;;14.83;100.00
65997;BME280;52765;52.258;21.052;2022-10-31T15:05:09;101119.88;;;14.70;100.00